Latest Coastal Weather Observations for Cape Willoughby

IDS60701

Issued at 11:21 pm CST Tuesday 27 September 2016 (issued every 10 minutes, with the page automatically refreshed every 10 minutes)

About coastal observations | Map of coastal stations | Coastal observations for SA | Marine services | Other Formats
Station Details ID: 022803 Name: CAPE WILLOUGHBY Lat: -35.84 Lon: 138.13 Height: 55.0 m
Data from the previous 72 hours. | See also: Recent months at Cape Willoughby
Date/Time
CST
Temp
°C
Wind Pressure Rain since
9am
mm
Weather Cloud Vis
km
Sea
Height
m
Swell
Dir  Spd
kts
Gust
kts
hPa Trend Height
m
Period
s
Dir
27/11:00pm 11.3 NNW 7 8 1011.7 - 0.0 - - - - - - -
27/10:30pm 11.7 N 8 9 1012.2 - 0.0 - - - - - - -
27/10:00pm 11.6 NNW 6 8 1012.5 - 0.0 - - - - - - -
27/09:30pm 12.2 NNW 11 13 1012.7 - 0.0 - - - - - - -
27/09:00pm 12.5 NNW 17 20 1012.6 - 0.0 - - - - - - -
27/08:30pm 12.4 NW 16 19 1012.7 - 0.0 - - - - - - -
27/08:00pm 12.8 NNW 18 22 1012.8 - 0.0 - - - - - - -
27/07:30pm 12.9 NNW 18 24 1012.7 - 0.0 - - - - - - -
27/07:00pm 13.1 NNW 16 21 1012.7 - 0.0 - - - - - - -
27/06:30pm 13.2 NNW 14 17 1012.9 - 0.0 - - - - - - -
27/06:00pm 13.3 NNW 14 20 1012.8 - 0.0 - - - - - - -
27/05:30pm 13.4 NNW 14 17 1012.8 - 0.0 - - - - - - -
27/05:00pm 13.5 NNW 17 22 1012.6 - 0.0 - - - - - - -
27/04:30pm 14.2 NNW 19 23 1012.5 - 0.0 - - - - - - -
27/04:00pm 15.0 NW 12 18 1012.9 - 0.0 - - - - - - -
27/03:30pm 14.8 NW 17 21 1013.1 - 0.0 - - - - - - -
27/03:00pm 14.7 NW 18 23 1013.1 - 0.0 - - - - - - -
27/02:30pm 15.3 NW 19 25 1013.2 - 0.0 - - - - - - -
27/02:00pm 15.0 NW 18 23 1013.5 - 0.0 - - - - - - -
27/01:40pm 15.3 NW 15 26 1013.5 - 0.0 - - - - - - -
27/01:30pm 14.9 NW 18 25 1013.5 - 0.0 - - - - - - -
27/01:00pm 15.3 NW 15 22 1013.8 - 0.0 - - - - - - -
27/12:53pm 15.2 NW 15 26 1013.9 - 0.0 - - - - - - -
27/12:30pm 15.6 NW 16 23 1014.1 - 0.0 - - - - - - -
27/12:00pm 14.7 NW 18 24 1014.3 - 0.0 - - - - - - -
27/11:30am 15.0 NW 18 25 1014.4 - 0.0 - - - - - - -
27/11:00am 13.3 NW 16 22 1014.6 - 0.0 - - - - - - -
27/10:30am 14.4 NW 16 21 1014.9 - 0.0 - - - - - - -
27/10:00am 14.6 WNW 13 20 1015.0 - 0.0 - - - - - - -
27/09:30am 14.2 NW 14 18 1015.1 - 0.0 - - - - - - -
27/09:00am 13.4 WNW 13 18 1015.2 - 0.2 - - - - - - -
27/08:30am 12.8 WNW 11 16 1015.1 - 0.2 - - - - - - -
27/08:00am 11.4 WNW 11 15 1015.1 - 0.2 - - - - - - -
27/07:30am 10.7 WNW 11 13 1014.7 - 0.2 - - - - - - -
27/07:00am 9.2 WNW 12 14 1014.5 - 0.2 - - - - - - -
27/06:30am 8.5 WNW 13 15 1014.2 - 0.2 - - - - - - -
27/06:00am 7.8 WNW 13 14 1013.9 - 0.2 - - - - - - -
27/05:30am 7.7 WNW 13 14 1013.7 - 0.2 - - - - - - -
27/05:00am 7.3 WNW 13 14 1013.7 - 0.2 - - - - - - -
27/04:30am 7.6 WNW 13 14 1013.3 - 0.2 - - - - - - -
27/04:00am 7.5 WNW 13 14 1013.1 - 0.2 - - - - - - -
27/03:30am 7.6 WNW 13 14 1013.1 - 0.2 - - - - - - -
27/03:00am 7.9 WNW 12 14 1013.2 - 0.2 - - - - - - -
27/02:30am 7.7 WNW 12 14 1013.4 - 0.2 - - - - - - -
27/02:00am 7.6 WNW 11 13 1013.4 - 0.2 - - - - - - -
27/01:30am 8.3 W 9 12 1014.0 - 0.2 - - - - - - -
27/01:00am 8.2 WSW 10 13 1014.0 - 0.2 - - - - - - -
27/12:30am 8.3 W 14 19 1014.2 - 0.2 - - - - - - -
27/12:00am 8.4 WNW 13 17 1014.1 - 0.2 - - - - - - -
 
Date/Time
CST
Temp
°C
Wind Pressure Rain since
9am
mm
Weather Cloud Vis
km
Sea
Height
m
Swell
Dir  Spd
kts
Gust
kts
hPa Trend Height
m
Period
s
Dir
26/11:30pm 8.6 WNW 11 13 1014.2 - 0.2 - - - - - - -
26/11:00pm 8.9 WNW 11 13 1014.3 - 0.2 - - - - - - -
26/10:30pm 9.1 W 15 20 1014.3 - 0.2 - - - - - - -
26/10:00pm 9.2 W 10 13 1014.0 - 0.2 - - - - - - -
26/09:30pm 9.6 W 10 15 1014.0 - 0.2 - - - - - - -
26/09:00pm 9.9 W 12 14 1013.9 - 0.2 - - - - - - -
26/08:30pm 9.5 WNW 12 15 1013.6 - 0.2 - - - - - - -
26/08:00pm 10.0 WNW 10 13 1013.4 - 0.2 - - - - - - -
26/07:30pm 10.4 W 10 14 1013.0 - 0.2 - - - - - - -
26/07:00pm 10.5 W 11 15 1012.6 - 0.2 - - - - - - -
26/06:30pm 10.7 W 12 15 1012.4 - 0.2 - - - - - - -
26/06:00pm 11.6 WSW 14 19 1012.1 - 0.2 - - - - - - -
26/05:30pm 12.1 WSW 18 25 1011.7 - 0.2 - - - - - - -
26/05:00pm 12.7 WSW 17 28 1011.2 - 0.2 - - - - - - -
26/04:49pm 12.8 WSW 20 30 1011.1 - 0.2 - - - - - - -
26/04:30pm 13.0 WSW 19 26 1010.7 - 0.2 - - - - - - -
26/04:00pm 13.1 WSW 25 32 1010.2 - 0.2 - - - - - - -
26/03:30pm 13.7 WSW 19 26 1010.1 - 0.2 - - - - - - -
26/03:00pm 13.4 WSW 21 26 1010.1 - 0.2 - - - - - - -
26/02:43pm 12.6 SW 22 29 1009.9 - 0.2 - - - - - - -
26/02:30pm 13.7 W 15 20 1010.2 - 0.2 - - - - - - -
26/02:13pm 13.9 WNW 19 29 1010.1 - 0.2 - - - - - - -
26/02:00pm 13.9 NW 23 32 1009.7 - 0.2 - - - - - - -
26/01:30pm 14.5 NW 21 32 1009.7 - 0.2 - - - - - - -
26/01:00pm 15.4 WNW 19 29 1009.9 - 0.2 - - - - - - -
26/12:30pm 15.4 WNW 17 31 1010.0 - 0.2 - - - - - - -
26/12:08pm 15.3 WNW 15 26 1010.0 - 0.2 - - - - - - -
26/12:00pm 14.8 WNW 14 23 1010.3 - 0.2 - - - - - - -
26/11:30am 13.9 NW 15 21 1010.5 - 0.2 - - - - - - -
26/11:00am 13.5 WNW 15 22 1010.9 - 0.2 - - - - - - -
26/10:30am 11.1 WNW 12 17 1011.4 - 0.2 - - - - - - -
26/10:00am 11.2 W 15 23 1011.4 - 0.2 - - - - - - -
26/09:53am 11.0 W 16 26 1011.4 - 0.2 - - - - - - -
26/09:30am 10.7 W 18 25 1011.5 - 0.2 - - - - - - -
26/09:00am 11.4 W 21 29 1011.2 - 0.0 - - - - - - -
26/08:53am 11.8 NW 17 26 1011.3 - 0.0 - - - - - - -
26/08:46am 12.4 NW 18 29 1011.0 - 0.0 - - - - - - -
26/08:30am 13.5 NNW 19 27 1010.7 - 0.0 - - - - - - -
26/08:00am 12.9 NNW 20 25 1010.7 - 0.0 - - - - - - -
26/07:30am 12.8 NNW 21 26 1010.2 - 0.0 - - - - - - -
26/07:00am 11.8 NNW 23 29 1010.3 - 0.0 - - - - - - -
26/06:30am 11.6 NNW 25 30 1010.2 - 0.0 - - - - - - -
26/06:00am 11.3 NNW 23 27 1010.3 - 0.0 - - - - - - -
26/05:30am 11.2 N 21 24 1010.2 - 0.0 - - - - - - -
26/05:00am 11.5 N 19 22 1010.2 - 0.0 - - - - - - -
26/04:30am 11.4 N 21 24 1010.1 - 0.0 - - - - - - -
26/04:00am 11.4 N 19 21 1010.2 - 0.0 - - - - - - -
26/03:30am 11.3 N 16 18 1010.6 - 0.0 - - - - - - -
26/03:00am 11.5 N 18 20 1010.3 - 0.0 - - - - - - -
26/02:30am 11.4 NNW 18 21 1011.4 - 0.0 - - - - - - -
26/02:00am 11.3 NNW 14 19 1012.3 - 0.0 - - - - - - -
26/01:30am 11.2 NNW 13 17 1012.8 - 0.0 - - - - - - -
26/01:00am 11.3 NNW 14 19 1013.3 - 0.0 - - - - - - -
26/12:30am 10.9 NNW 10 14 1013.7 - 0.0 - - - - - - -
26/12:00am 10.6 NW 10 12 1014.0 - 0.0 - - - - - - -
 
Date/Time
CST
Temp
°C
Wind Pressure Rain since
9am
mm
Weather Cloud Vis
km
Sea
Height
m
Swell
Dir  Spd
kts
Gust
kts
hPa Trend Height
m
Period
s
Dir
25/11:30pm 10.2 NW 10 11 1014.3 - 0.0 - - - - - - -
25/11:00pm 10.3 NW 10 12 1014.3 - 0.0 - - - - - - -
25/10:30pm 10.3 NW 10 11 1014.4 - 0.0 - - - - - - -
25/10:00pm 10.2 NW 10 11 1014.8 - 0.0 - - - - - - -
25/09:30pm 9.8 WNW 10 11 1014.8 - 0.0 - - - - - - -
25/09:00pm 9.8 NW 9 10 1014.7 - 0.0 - - - - - - -
25/08:30pm 10.2 NW 10 11 1014.5 - 0.0 - - - - - - -
25/08:00pm 10.3 NW 8 9 1014.3 - 0.0 - - - - - - -
25/07:30pm 10.6 WNW 7 8 1014.2 - 0.0 - - - - - - -
25/07:00pm 11.0 NW 8 10 1013.9 - 0.0 - - - - - - -
25/06:30pm 11.6 NNW 11 15 1013.5 - 0.0 - - - - - - -
25/06:00pm 11.7 NNW 16 21 1013.4 - 0.0 - - - - - - -
25/05:30pm 11.8 NNW 17 21 1013.0 - 0.0 - - - - - - -
25/05:00pm 12.7 NNW 17 21 1013.1 - 0.0 - - - - - - -
25/04:30pm 12.3 NNW 19 24 1012.9 - 0.0 - - - - - - -
25/04:00pm 12.4 NW 11 17 1013.0 - 0.0 - - - - - - -
25/03:30pm 12.9 NNW 16 20 1012.7 - 0.0 - - - - - - -
25/03:00pm 13.8 NNW 17 23 1012.8 - 0.0 - - - - - - -
25/02:30pm 13.9 NNW 18 23 1012.9 - 0.0 - - - - - - -
25/02:00pm 14.4 NNW 20 22 1013.0 - 0.0 - - - - - - -
25/01:30pm 14.5 NNW 16 19 1013.4 - 0.0 - - - - - - -
25/01:25pm 13.5 NNW 15 19 1013.4 - 0.0 - - - - - - -
25/01:00pm 12.9 NNE 3 7 1013.9 - 0.0 - - - - - - -
25/12:30pm 12.2 S 3 5 1014.4 - 0.0 - - - - - - -
25/12:00pm 11.9 S 4 7 1014.4 - 0.0 - - - - - - -
25/11:30am 11.9 S 8 11 1014.7 - 0.0 - - - - - - -
25/11:00am 12.1 S 9 12 1014.8 - 0.0 - - - - - - -
25/10:30am 12.5 S 6 10 1015.0 - 0.0 - - - - - - -
25/10:00am 12.3 SSW 10 15 1015.0 - 0.0 - - - - - - -
25/09:30am 13.1 WSW 3 5 1015.2 - 0.0 - - - - - - -
25/09:00am 11.8 SW 12 17 1015.4 - 0.4 - - - - - - -
25/08:30am 12.0 WNW 12 16 1015.3 - 0.4 - - - - - - -
25/08:00am 10.5 WNW 10 13 1015.1 - 0.4 - - - - - - -
25/07:30am 9.8 W 10 13 1014.8 - 0.4 - - - - - - -
25/07:00am 9.1 WNW 9 11 1014.4 - 0.4 - - - - - - -
25/06:30am 8.6 WSW 8 13 1014.0 - 0.4 - - - - - - -
25/06:00am 7.9 WNW 12 15 1013.6 - 0.4 - - - - - - -
25/05:30am 7.6 WNW 11 13 1013.4 - 0.4 - - - - - - -
25/05:00am 7.8 WNW 12 14 1012.8 - 0.4 - - - - - - -
25/04:30am 7.9 WNW 8 9 1012.5 - 0.4 - - - - - - -
25/04:00am 8.6 W 10 15 1012.6 - 0.4 - - - - - - -
25/03:30am 8.9 WNW 9 12 1012.3 - 0.4 - - - - - - -
25/03:00am 8.3 WNW 12 14 1011.9 - 0.4 - - - - - - -
25/02:30am 7.8 WNW 10 11 1011.7 - 0.4 - - - - - - -
25/02:00am 8.2 WNW 11 14 1012.1 - 0.4 - - - - - - -
25/01:30am 7.5 WNW 12 15 1012.4 - 0.4 - - - - - - -
25/01:00am 7.7 WNW 11 13 1012.2 - 0.4 - - - - - - -
25/12:30am 7.8 WNW 11 13 1012.1 - 0.4 - - - - - - -
25/12:00am 8.0 WNW 12 14 1012.3 - 0.4 Recent precip. - - - - - -
 
Date/Time
CST
Temp
°C
Wind Pressure Rain since
9am
mm
Weather Cloud Vis
km
Sea
Height
m
Swell
Dir  Spd
kts
Gust
kts
hPa Trend Height
m
Period
s
Dir
24/11:30pm 8.1 WNW 12 13 1012.3 - 0.2 - - - - - - -

Other Formats:

Comma delimited format used in spreadsheet applications
http://www.bom.gov.au/fwo/IDS60701/IDS60701.94822.axf

JavaScript Object Notation format (JSON) in row-major order
http://www.bom.gov.au/fwo/IDS60701/IDS60701.94822.json